Time;durP1;ratioP1;P1;durP2;ratioP2;P2;SDS_P1;SDS_P2;PMS_P1;PMS_P2;Temp;Humidity;BMP_temperature;BMP_pressure;BME280_temperature;BME280_humidity;BME280_pressure;Samples;Min_cycle;Max_cycle;Signal;HPM_P1;HPM_P2
2023/09/01 00:07:11;;;;;;;6.20;2.80;;;17.40;96.80;;;;;;20787059;28;20217;-68
2023/09/01 00:17:13;;;;;;;4.43;2.80;;;17.30;97.80;;;;;;20757525;28;20251;-67
2023/09/01 00:27:15;;;;;;;7.43;3.20;;;17.20;98.80;;;;;;20757972;28;20215;-70
2023/09/01 00:37:17;;;;;;;4.40;2.90;;;17.20;99.60;;;;;;20785403;28;20235;-69
2023/09/01 00:47:20;;;;;;;5.40;3.00;;;17.10;99.90;;;;;;20838337;28;20248;-70
2023/09/01 00:57:22;;;;;;;7.80;3.37;;;17.20;99.90;;;;;;20837656;28;20236;-70
2023/09/01 01:07:31;;;;;;;5.87;3.33;;;17.10;99.90;;;;;;20822651;28;20202;-70
2023/09/01 01:17:33;;;;;;;6.17;3.20;;;17.10;99.90;;;;;;20778559;28;20248;-68
2023/09/01 01:27:37;;;;;;;6.30;3.33;;;17.10;99.90;;;;;;20753312;28;20558;-69
2023/09/01 01:37:50;;;;;;;9.10;3.67;;;17.20;99.90;;;;;;20752234;28;20244;-70
2023/09/01 01:47:53;;;;;;;8.07;3.40;;;17.10;99.90;;;;;;20751652;28;20739;-70
2023/09/01 01:57:54;;;;;;;7.43;3.43;;;17.00;99.90;;;;;;20751150;28;20244;-69
2023/09/01 02:07:56;;;;;;;6.77;3.53;;;17.10;99.90;;;;;;20750340;28;20629;-70
2023/09/01 02:17:59;;;;;;;5.57;3.37;;;17.00;99.90;;;;;;20756345;28;20718;-70
2023/09/01 02:28:04;;;;;;;6.17;3.60;;;17.00;99.90;;;;;;20767232;28;20228;-70
2023/09/01 02:38:05;;;;;;;5.17;3.77;;;17.00;99.90;;;;;;20748721;28;20240;-70
2023/09/01 02:48:07;;;;;;;8.13;4.20;;;16.90;99.90;;;;;;20748333;28;20302;-69
2023/09/01 02:58:09;;;;;;;6.43;3.87;;;16.90;99.90;;;;;;20767724;28;20334;-68
2023/09/01 03:08:11;;;;;;;6.20;3.90;;;16.90;99.90;;;;;;20766317;28;20256;-69
2023/09/01 03:18:14;;;;;;;7.70;4.27;;;16.90;99.90;;;;;;20746964;28;20330;-69
2023/09/01 03:28:20;;;;;;;5.53;3.63;;;16.90;99.90;;;;;;20751228;28;20262;-69
2023/09/01 03:38:21;;;;;;;6.83;4.00;;;16.90;99.90;;;;;;20761494;28;20240;-70
2023/09/01 03:48:24;;;;;;;6.13;4.33;;;16.80;99.90;;;;;;20760966;28;20289;-68
2023/09/01 03:58:26;;;;;;;6.27;4.27;;;16.80;99.90;;;;;;20760530;28;20699;-68
2023/09/01 04:08:28;;;;;;;6.83;4.50;;;16.90;99.90;;;;;;20759622;28;20210;-67
2023/09/01 04:18:31;;;;;;;6.80;4.40;;;16.80;99.90;;;;;;20758639;28;20246;-68
2023/09/01 04:28:34;;;;;;;6.70;4.10;;;16.80;99.90;;;;;;20758342;28;20213;-70
2023/09/01 04:38:35;;;;;;;6.07;4.30;;;16.80;99.90;;;;;;20756432;28;20295;-70
2023/09/01 04:48:38;;;;;;;7.50;4.23;;;16.90;99.90;;;;;;20756094;28;20216;-70
2023/09/01 04:58:40;;;;;;;7.27;4.77;;;16.80;99.90;;;;;;20755313;28;20321;-68
2023/09/01 05:08:41;;;;;;;7.60;4.43;;;16.90;99.90;;;;;;20754378;28;20219;-69
2023/09/01 05:18:43;;;;;;;7.07;4.80;;;16.90;99.90;;;;;;20775341;28;20324;-69
2023/09/01 05:28:45;;;;;;;8.20;4.67;;;16.90;99.90;;;;;;20786410;28;20216;-69
2023/09/01 05:38:46;;;;;;;6.03;3.93;;;17.00;99.90;;;;;;20752034;28;20240;-69
2023/09/01 05:48:48;;;;;;;5.33;3.60;;;17.00;99.90;;;;;;20750964;28;20215;-70
2023/09/01 05:58:50;;;;;;;5.00;3.50;;;17.10;99.90;;;;;;20751284;28;20643;-70
2023/09/01 06:08:53;;;;;;;7.87;3.70;;;17.10;99.90;;;;;;20750120;28;20208;-69
2023/09/01 06:18:57;;;;;;;5.93;3.57;;;17.20;99.90;;;;;;20749130;28;20263;-69
2023/09/01 06:28:59;;;;;;;6.30;3.70;;;17.40;99.90;;;;;;20749164;28;20244;-69
2023/09/01 06:39:01;;;;;;;6.43;3.40;;;17.50;99.90;;;;;;20748665;28;20232;-68
2023/09/01 06:49:03;;;;;;;7.10;3.47;;;17.60;99.90;;;;;;20828561;28;20212;-67
2023/09/01 06:59:05;;;;;;;5.07;3.67;;;17.70;99.90;;;;;;20828957;28;20322;-71
2023/09/01 07:09:06;;;;;;;3.67;3.33;;;17.70;99.90;;;;;;20843064;28;20218;-71
2023/09/01 07:19:08;;;;;;;6.87;3.50;;;17.90;99.90;;;;;;20843206;28;20315;-70
2023/09/01 07:29:10;;;;;;;5.50;3.70;;;18.00;99.90;;;;;;20843667;28;20217;-74
2023/09/01 07:39:12;;;;;;;4.50;3.73;;;18.10;99.90;;;;;;20842513;28;20246;-73
2023/09/01 07:49:13;;;;;;;5.73;3.60;;;18.10;99.90;;;;;;20841909;28;20669;-68
2023/09/01 07:59:15;;;;;;;5.17;4.20;;;18.20;99.90;;;;;;20841557;28;20246;-73
2023/09/01 08:09:17;;;;;;;5.17;4.07;;;18.20;99.90;;;;;;20840107;28;20215;-73
2023/09/01 08:19:18;;;;;;;7.40;4.67;;;18.30;99.90;;;;;;20838812;28;20703;-70
2023/09/01 08:29:21;;;;;;;8.37;5.23;;;18.40;99.90;;;;;;20839183;28;20354;-71
2023/09/01 08:39:23;;;;;;;9.10;4.83;;;18.50;99.90;;;;;;20837995;28;20319;-77
2023/09/01 08:49:26;;;;;;;4.93;2.20;;;18.80;99.90;;;;;;20817807;28;20231;-68
2023/09/01 08:59:28;;;;;;;1.80;1.67;;;19.20;99.90;;;;;;20754946;28;20245;-69
2023/09/01 09:09:30;;;;;;;3.40;2.80;;;19.40;99.90;;;;;;20754106;28;20252;-70
2023/09/01 09:19:32;;;;;;;2.43;1.93;;;19.40;99.90;;;;;;20790283;28;20240;-71
2023/09/01 09:29:40;;;;;;;2.83;2.13;;;19.30;99.90;;;;;;20751251;28;20224;-71
2023/09/01 09:39:43;;;;;;;4.17;2.10;;;19.50;99.90;;;;;;20750338;28;20214;-70
2023/09/01 09:49:45;;;;;;;2.63;2.20;;;19.60;99.90;;;;;;20750798;28;20247;-72
2023/09/01 10:00:08;;;;;;;5.07;2.50;;;19.80;99.90;;;;;;20771958;28;20244;-77
2023/09/01 10:10:11;;;;;;;3.77;2.47;;;19.80;99.90;;;;;;20750131;28;20368;-77
2023/09/01 10:20:13;;;;;;;2.90;2.57;;;19.70;99.90;;;;;;20748209;28;20251;-72
2023/09/01 10:30:28;;;;;;;3.50;2.90;;;19.80;99.90;;;;;;20748689;28;20320;-80
2023/09/01 10:40:44;;;;;;;5.83;3.57;;;19.90;99.90;;;;;;20730828;28;20243;-81
2023/09/01 10:51:18;;;;;;;4.13;3.50;;;20.00;99.90;;;;;;20747199;28;20272;-77
2023/09/01 11:01:36;;;;;;;4.23;3.00;;;20.10;99.90;;;;;;20747109;28;20212;-71
2023/09/01 11:11:38;;;;;;;4.27;3.20;;;20.30;99.90;;;;;;20746658;28;20232;-70
2023/09/01 11:21:40;;;;;;;6.80;3.10;;;20.60;99.90;;;;;;20803659;28;20320;-70
2023/09/01 11:31:43;;;;;;;3.47;2.57;;;20.90;99.90;;;;;;20827290;28;20758;-75
2023/09/01 11:41:45;;;;;;;6.03;2.70;;;21.20;99.90;;;;;;20826848;28;20209;-77
2023/09/01 11:51:48;;;;;;;6.43;3.37;;;21.30;99.90;;;;;;20836866;28;20327;-74
2023/09/01 12:01:50;;;;;;;10.07;2.30;;;21.60;99.90;;;;;;20841925;28;20668;-74
2023/09/01 12:11:56;;;;;;;4.87;3.37;;;21.80;99.90;;;;;;20840017;28;20239;-75
2023/09/01 12:21:58;;;;;;;5.87;2.73;;;21.50;99.90;;;;;;20839034;28;20244;-74
2023/09/01 12:32:00;;;;;;;3.03;2.07;;;21.30;99.90;;;;;;20838188;28;20236;-74
2023/09/01 12:42:02;;;;;;;2.20;1.33;;;21.00;99.90;;;;;;20837846;28;20248;-74
2023/09/01 12:52:04;;;;;;;2.50;1.20;;;20.70;99.90;;;;;;20836628;28;20232;-75
2023/09/01 13:02:06;;;;;;;1.97;1.10;;;20.40;99.90;;;;;;20835793;28;20204;-76
2023/09/01 13:12:08;;;;;;;8.30;1.40;;;20.40;99.90;;;;;;20835310;28;20710;-75
2023/09/01 13:22:09;;;;;;;4.03;1.50;;;20.90;99.90;;;;;;20833881;28;20617;-75
2023/09/01 13:32:11;;;;;;;1.43;1.13;;;21.20;99.90;;;;;;20833787;28;20332;-80
2023/09/01 13:42:13;;;;;;;1.27;1.10;;;21.20;99.90;;;;;;20816576;28;20291;-76
2023/09/01 13:52:14;;;;;;;1.80;1.10;;;21.20;99.90;;;;;;20787937;28;20240;-71
2023/09/01 14:02:16;;;;;;;2.00;1.20;;;21.50;99.90;;;;;;20749159;28;20214;-70
2023/09/01 14:12:18;;;;;;;1.83;1.23;;;23.30;99.90;;;;;;20749436;28;20230;-71
2023/09/01 14:22:20;;;;;;;1.50;1.30;;;24.90;99.90;;;;;;20811963;28;20240;-69
2023/09/01 14:32:22;;;;;;;1.97;1.30;;;24.00;99.90;;;;;;20830200;28;20321;-71
2023/09/01 14:42:23;;;;;;;2.43;1.40;;;23.40;99.90;;;;;;20828403;28;20589;-72
2023/09/01 14:52:26;;;;;;;1.63;1.20;;;23.10;99.90;;;;;;20824336;28;20236;-72
2023/09/01 15:02:28;;;;;;;3.17;1.20;;;22.60;99.90;;;;;;20816927;28;20210;-72
2023/09/01 15:12:30;;;;;;;1.73;1.30;;;22.50;99.90;;;;;;20762797;28;20249;-72
2023/09/01 15:22:31;;;;;;;1.80;1.30;;;22.10;99.90;;;;;;20750313;28;20815;-72
2023/09/01 15:32:33;;;;;;;1.63;1.30;;;22.20;99.90;;;;;;20762938;28;20711;-72
2023/09/01 15:42:35;;;;;;;1.43;1.13;;;22.20;99.90;;;;;;20761117;28;20216;-72
2023/09/01 15:52:37;;;;;;;1.93;1.10;;;21.90;99.90;;;;;;20760755;28;20320;-72
2023/09/01 16:02:38;;;;;;;1.57;1.10;;;21.80;99.90;;;;;;20760177;28;20213;-72
2023/09/01 16:12:42;;;;;;;5.23;1.20;;;21.70;99.90;;;;;;20759470;28;20290;-72
2023/09/01 16:22:43;;;;;;;1.20;1.00;;;21.70;99.90;;;;;;20771348;28;20243;-72
2023/09/01 16:32:45;;;;;;;2.87;1.23;;;21.70;99.80;;;;;;20768335;28;20248;-72
2023/09/01 16:42:47;;;;;;;1.10;1.00;;;21.60;99.90;;;;;;20757373;28;20256;-72
2023/09/01 16:52:48;;;;;;;0.93;0.90;;;21.40;99.90;;;;;;20756212;28;20618;-72
2023/09/01 17:02:50;;;;;;;2.83;1.10;;;21.30;99.90;;;;;;20755554;28;20217;-72
2023/09/01 17:12:52;;;;;;;1.00;0.90;;;21.30;99.90;;;;;;20754822;28;20264;-71
2023/09/01 17:22:54;;;;;;;1.53;1.00;;;21.20;99.90;;;;;;20753730;28;20272;-71
2023/09/01 17:32:55;;;;;;;0.80;0.80;;;21.20;99.90;;;;;;20753005;28;20229;-72
2023/09/01 17:42:57;;;;;;;1.10;1.00;;;21.10;99.90;;;;;;20752805;28;20285;-72
2023/09/01 17:53:00;;;;;;;1.67;0.80;;;21.10;99.90;;;;;;20750857;28;20313;-72
2023/09/01 18:03:02;;;;;;;1.47;1.10;;;21.00;99.90;;;;;;20751035;28;20209;-72
2023/09/01 18:13:05;;;;;;;1.37;0.97;;;20.90;99.90;;;;;;20749491;28;20316;-72
2023/09/01 18:23:17;;;;;;;2.30;1.07;;;20.80;99.90;;;;;;20749271;28;20269;-71
2023/09/01 18:33:23;;;;;;;2.40;1.30;;;20.80;99.90;;;;;;20749039;28;20328;-72
2023/09/01 18:43:32;;;;;;;3.10;1.90;;;;;;;;;;20748794;28;20609;-71
2023/09/01 18:53:39;;;;;;;1.50;1.30;;;20.70;99.90;;;;;;20746576;28;20244;-70
2023/09/01 19:03:41;;;;;;;2.50;1.27;;;20.30;99.90;;;;;;20761667;28;20212;-68
2023/09/01 19:13:44;;;;;;;3.60;3.20;;;20.10;99.90;;;;;;20764506;28;20239;-71
2023/09/01 19:23:47;;;;;;;2.67;1.33;;;20.00;99.90;;;;;;20791026;28;20236;-75
2023/09/01 19:33:56;;;;;;;5.67;1.60;;;19.80;99.90;;;;;;20843481;28;20626;-73
2023/09/01 19:44:01;;;;;;;3.53;1.30;;;19.80;99.90;;;;;;20842417;28;20211;-76
2023/09/01 19:54:04;;;;;;;4.80;1.70;;;19.80;99.90;;;;;;20809223;28;20324;-73
2023/09/01 20:04:15;;;;;;;3.00;2.07;;;19.60;99.90;;;;;;20759492;28;20198;-74
2023/09/01 20:14:16;;;;;;;4.40;1.83;;;19.40;99.90;;;;;;20793896;28;20236;-77
2023/09/01 20:24:18;;;;;;;4.13;2.13;;;19.20;99.90;;;;;;20772885;28;20340;-76
2023/09/01 20:34:20;;;;;;;2.50;2.07;;;19.10;99.90;;;;;;20773445;28;20228;-76
2023/09/01 20:44:22;;;;;;;6.03;2.40;;;18.90;99.90;;;;;;20758162;28;20237;-75
2023/09/01 20:54:23;;;;;;;4.73;2.50;;;18.80;99.90;;;;;;20756517;28;20248;-77
2023/09/01 21:04:25;;;;;;;2.87;1.97;;;18.80;99.90;;;;;;20755543;28;20568;-76
2023/09/01 21:14:27;;;;;;;7.53;3.43;;;18.70;99.90;;;;;;20807535;28;20331;-78
2023/09/01 21:24:29;;;;;;;5.67;3.87;;;18.60;99.90;;;;;;20756781;28;20237;-75
2023/09/01 21:34:30;;;;;;;6.57;2.60;;;18.50;99.90;;;;;;20753053;28;20326;-74
2023/09/01 21:44:32;;;;;;;4.47;2.20;;;18.40;99.90;;;;;;20751216;28;20734;-73
2023/09/01 21:54:34;;;;;;;4.73;2.27;;;18.40;99.90;;;;;;20771883;28;20347;-77
2023/09/01 22:04:36;;;;;;;4.80;2.70;;;18.40;99.90;;;;;;20831419;28;20584;-79
2023/09/01 22:14:38;;;;;;;3.50;2.60;;;18.40;99.90;;;;;;20830902;28;20322;-74
2023/09/01 22:24:40;;;;;;;5.57;2.33;;;18.30;99.90;;;;;;20889956;28;20244;-77
2023/09/01 22:34:41;;;;;;;5.57;2.00;;;18.20;99.90;;;;;;20758005;28;20241;-78
2023/09/01 22:44:43;;;;;;;3.93;1.80;;;18.20;99.90;;;;;;20749893;28;20581;-75
2023/09/01 22:54:45;;;;;;;3.37;2.10;;;18.20;99.90;;;;;;20748795;28;20243;-76
2023/09/01 23:04:47;;;;;;;3.00;2.40;;;18.10;99.90;;;;;;20750282;28;20227;-77
2023/09/01 23:14:48;;;;;;;10.50;2.57;;;18.10;99.90;;;;;;20770561;28;20271;-76
2023/09/01 23:24:50;;;;;;;7.73;2.20;;;18.00;99.90;;;;;;20748150;28;20678;-76
2023/09/01 23:34:52;;;;;;;4.27;2.10;;;17.90;99.90;;;;;;20747032;28;20667;-76
2023/09/01 23:44:54;;;;;;;6.13;2.53;;;17.80;99.90;;;;;;20733907;28;20720;-74
2023/09/01 23:54:55;;;;;;;3.87;2.10;;;17.70;99.90;;;;;;20761566;28;20658;-74
